Time;durP1;ratioP1;P1;durP2;ratioP2;P2;SDS_P1;SDS_P2;PMS_P1;PMS_P2;Temp;Humidity;BMP_temperature;BMP_pressure;BME280_temperature;BME280_humidity;BME280_pressure;Samples;Min_cycle;Max_cycle;Signal;HPM_P1;HPM_P2
2022/09/15 00:03:01;;;;;;;3.22;1.90;;;;;;;24.61;38.03;100577.53;5095719;27;20448;-58
2022/09/15 00:05:27;;;;;;;2.87;1.60;;;;;;;24.65;37.75;100568.84;5081919;28;20842;-57
2022/09/15 00:07:52;;;;;;;5.77;2.13;;;;;;;24.63;37.61;100566.41;5086110;28;20390;-58
2022/09/15 00:10:18;;;;;;;3.30;1.67;;;;;;;24.68;37.57;100571.03;5081347;28;20806;-58
2022/09/15 00:14:47;;;;;;;5.22;1.67;;;;;;;24.73;37.43;100566.44;5094265;27;20927;-57
2022/09/15 00:18:25;;;;;;;4.50;1.65;;;;;;;24.77;37.25;100556.66;5096113;27;20459;-58
2022/09/15 00:20:51;;;;;;;3.63;1.50;;;;;;;24.83;37.02;100554.81;5075174;28;20395;-57
2022/09/15 00:23:17;;;;;;;3.70;1.77;;;;;;;24.84;36.83;100555.59;5079925;28;20800;-57
2022/09/15 00:29:12;;;;;;;4.38;1.60;;;;;;;24.96;36.09;100548.03;5089505;27;20406;-58
2022/09/15 00:31:38;;;;;;;4.47;1.88;;;;;;;24.99;36.26;100553.72;5085505;28;20531;-58
2022/09/15 00:36:02;;;;;;;3.92;1.52;;;;;;;25.07;36.28;100557.78;5092172;27;20406;-58
2022/09/15 00:38:28;;;;;;;4.05;1.88;;;;;;;25.10;36.01;100564.56;5078186;28;20506;-58
2022/09/15 00:40:56;;;;;;;4.40;1.88;;;;;;;25.10;36.03;100559.13;5086545;28;20868;-58
2022/09/15 00:43:42;;;;;;;2.45;1.58;;;;;;;25.10;35.84;100559.13;5083465;28;20402;-58
2022/09/15 00:46:08;;;;;;;4.83;1.70;;;;;;;25.12;35.89;100551.53;5065759;28;20438;-58
2022/09/15 00:50:19;;;;;;;5.78;1.88;;;;;;;25.17;35.62;100543.41;5040583;28;20478;-57
2022/09/15 00:52:50;;;;;;;4.63;1.60;;;;;;;25.19;35.68;100547.50;5037433;28;20422;-58
2022/09/15 00:59:52;;;;;;;4.35;1.52;;;;;;;25.25;35.46;100533.97;5086295;27;20454;-58
2022/09/15 01:02:22;;;;;;;4.82;1.58;;;;;;;25.29;35.25;100535.84;5065366;28;20466;-58
2022/09/15 01:04:50;;;;;;;4.53;1.40;;;;;;;25.30;35.28;100533.94;5065981;28;20557;-57
2022/09/15 01:08:07;;;;;;;4.50;1.60;;;;;;;25.34;35.45;100548.59;5096173;27;20765;-58
2022/09/15 01:10:36;;;;;;;3.75;1.58;;;;;;;25.32;35.42;100539.94;5085975;28;20429;-58
2022/09/15 01:13:05;;;;;;;4.05;1.75;;;;;;;25.31;35.33;100539.09;5079969;28;20803;-58
2022/09/15 01:16:43;;;;;;;2.65;1.70;;;;;;;25.30;35.36;100528.50;5055771;28;20418;-58
2022/09/15 01:20:40;;;;;;;5.30;1.67;;;;;;;25.27;35.33;100532.59;5098332;27;20938;-58
2022/09/15 01:23:20;;;;;;;4.80;1.60;;;;;;;25.26;35.33;100530.94;5077014;28;20405;-58
2022/09/15 01:27:58;;;;;;;4.22;1.80;;;;;;;25.20;35.34;100532.03;5043158;28;20409;-58
2022/09/15 01:30:24;;;;;;;4.65;1.55;;;;;;;25.16;35.46;100548.03;5045647;28;20488;-58
2022/09/15 01:33:05;;;;;;;4.30;1.65;;;;;;;25.16;35.19;100533.66;5045501;28;20404;-57
2022/09/15 01:35:34;;;;;;;4.38;1.85;;;;;;;25.07;35.71;100532.56;5045807;28;20408;-58
2022/09/15 01:38:08;;;;;;;3.30;1.70;;;;;;;25.03;35.98;100529.59;5036934;28;20480;-58
2022/09/15 01:40:49;;;;;;;3.85;1.92;;;;;;;24.97;36.48;100534.22;5045482;28;20891;-58
2022/09/15 01:43:19;;;;;;;3.55;1.48;;;;;;;24.85;37.00;100539.06;5045481;28;20398;-57
2022/09/15 01:45:47;;;;;;;3.93;1.67;;;;;;;24.78;37.58;100536.63;5043037;28;20512;-58
2022/09/15 01:48:13;;;;;;;4.57;1.95;;;;;;;24.75;38.06;100547.19;5045419;28;20413;-58
2022/09/15 01:52:51;;;;;;;5.88;2.00;;;;;;;24.58;38.58;100537.41;5098026;27;20463;-58
2022/09/15 01:56:10;;;;;;;6.72;2.00;;;;;;;24.48;39.42;100523.78;5051625;28;20411;-58
2022/09/15 01:59:21;;;;;;;4.43;1.80;;;;;;;24.36;39.65;100515.94;5083851;27;20472;-58
2022/09/15 02:02:00;;;;;;;3.83;1.90;;;;;;;24.29;40.04;100522.66;5055502;28;20397;-58
2022/09/15 02:04:38;;;;;;;5.07;1.73;;;;;;;24.31;40.19;100526.75;5065751;28;20479;-58
2022/09/15 02:07:35;;;;;;;3.97;1.80;;;;;;;24.25;40.55;100527.78;5065854;28;20483;-58
2022/09/15 02:12:52;;;;;;;3.63;2.00;;;;;;;24.18;40.97;100536.19;5087090;27;20939;-56
2022/09/15 02:15:27;;;;;;;4.65;2.10;;;;;;;24.11;41.45;100534.78;5079565;28;20484;-57
2022/09/15 02:17:56;;;;;;;3.75;2.30;;;;;;;24.10;41.92;100530.44;5066911;28;20414;-56
2022/09/15 02:20:30;;;;;;;5.20;2.10;;;;;;;24.09;42.26;100535.03;5072151;28;20404;-58
2022/09/15 02:23:07;;;;;;;4.95;1.80;;;;;;;24.05;42.38;100534.75;5086093;28;20746;-57
2022/09/15 02:25:40;;;;;;;3.77;2.20;;;;;;;24.03;43.08;100530.69;5076305;28;20756;-58
2022/09/15 02:28:09;;;;;;;3.47;2.20;;;;;;;24.01;43.97;100528.25;5080230;28;20396;-58
2022/09/15 02:30:40;;;;;;;4.20;2.00;;;;;;;23.96;43.56;100528.22;5068008;28;20427;-57
2022/09/15 02:33:09;;;;;;;4.63;2.00;;;;;;;23.95;44.01;100526.59;5079355;28;20381;-58
2022/09/15 02:35:35;;;;;;;4.93;2.20;;;;;;;24.02;42.46;100540.72;5065049;28;20384;-58
2022/09/15 02:38:05;;;;;;;4.63;2.03;;;;;;;24.00;42.27;100533.91;5073971;28;20384;-59
2022/09/15 02:40:31;;;;;;;3.20;1.90;;;;;;;24.04;41.10;100527.72;5078305;28;20486;-56
2022/09/15 02:43:01;;;;;;;4.53;2.00;;;;;;;24.09;40.11;100521.50;5075949;28;20390;-56
2022/09/15 02:45:42;;;;;;;3.80;1.70;;;;;;;24.14;39.29;100518.00;5058298;28;20480;-58
2022/09/15 02:48:08;;;;;;;4.17;1.60;;;;;;;24.20;37.87;100514.22;5028426;28;20828;-58
2022/09/15 02:50:35;;;;;;;2.42;1.30;;;;;;;24.24;36.84;100513.44;5018332;28;20406;-58
2022/09/15 02:53:01;;;;;;;4.22;1.48;;;;;;;24.32;36.39;100522.94;5034748;28;20391;-57
2022/09/15 02:55:27;;;;;;;4.05;1.55;;;;;;;24.38;36.00;100521.03;5010660;28;20392;-57
2022/09/15 02:57:54;;;;;;;4.57;1.40;;;;;;;24.44;35.41;100517.28;5035538;28;20410;-58
2022/09/15 03:00:20;;;;;;;3.13;1.67;;;;;;;24.45;35.40;100507.25;5023090;28;20430;-58
2022/09/15 03:03:52;;;;;;;4.20;1.40;;;;;;;24.56;34.79;100517.88;5053944;28;20953;-58
2022/09/15 03:06:19;;;;;;;2.47;1.20;;;;;;;24.61;34.47;100508.94;5034337;28;20410;-58
2022/09/15 03:08:51;;;;;;;3.67;1.40;;;;;;;24.65;34.24;100511.94;5045877;28;20423;-58
2022/09/15 03:11:19;;;;;;;4.00;1.30;;;;;;;24.69;34.16;100502.19;5032056;28;20397;-57
2022/09/15 03:15:51;;;;;;;3.88;1.48;;;;;;;24.77;34.05;100502.44;5086246;27;20463;-58
2022/09/15 03:18:16;;;;;;;2.20;1.30;;;;;;;24.80;33.86;100511.97;5082772;28;20793;-57
2022/09/15 03:20:41;;;;;;;2.40;1.30;;;;;;;24.83;33.72;100507.88;5074473;28;20390;-58
2022/09/15 03:23:07;;;;;;;2.20;1.20;;;;;;;24.89;33.44;100495.97;5084110;28;20392;-58
2022/09/15 03:27:52;;;;;;;3.35;1.58;;;;;;;24.91;33.58;100501.94;5074191;27;20465;-58
2022/09/15 03:30:18;;;;;;;3.70;1.43;;;;;;;24.93;33.68;100502.47;5065421;28;20403;-58
2022/09/15 03:32:43;;;;;;;2.43;1.50;;;;;;;24.90;33.87;100494.88;5065156;28;20392;-58
2022/09/15 03:35:09;;;;;;;3.00;1.63;;;;;;;24.92;34.01;100500.81;5065694;28;20710;-57
2022/09/15 03:37:35;;;;;;;4.87;1.50;;;;;;;24.94;34.01;100501.41;5065944;28;20469;-58
2022/09/15 03:40:02;;;;;;;6.90;1.70;;;;;;;24.93;34.03;100497.84;5065097;28;20423;-58
2022/09/15 03:42:28;;;;;;;7.20;1.98;;;;;;;24.93;34.36;100495.13;5064520;28;20395;-57
2022/09/15 03:44:53;;;;;;;4.75;1.60;;;;;;;24.84;34.52;100490.53;5064683;28;20392;-58
2022/09/15 03:47:19;;;;;;;8.03;1.97;;;;;;;24.74;36.10;100494.03;5064369;28;20420;-58
2022/09/15 03:49:44;;;;;;;5.13;2.03;;;;;;;24.43;40.31;100488.56;5065110;28;20450;-58
2022/09/15 03:52:46;;;;;;;7.78;2.17;;;;;;;24.12;42.25;100488.47;5096441;27;20467;-58
2022/09/15 03:55:11;;;;;;;5.60;2.20;;;;;;;24.01;43.48;100465.16;5074303;28;20399;-58
2022/09/15 03:57:37;;;;;;;5.82;2.33;;;;;;;23.92;43.56;100472.16;5071893;28;20401;-58
2022/09/15 04:00:05;;;;;;;7.70;1.93;;;;;;;23.87;43.87;100470.25;5073596;28;20400;-58
2022/09/15 04:02:30;;;;;;;5.32;2.50;;;;;;;23.81;44.38;100480.25;5067219;28;20908;-58
2022/09/15 04:04:56;;;;;;;5.90;2.35;;;;;;;23.79;44.59;100481.56;5065773;28;20468;-58
2022/09/15 04:07:21;;;;;;;5.97;2.53;;;;;;;23.72;44.08;100484.50;5063348;28;20395;-57
2022/09/15 04:09:46;;;;;;;4.33;2.00;;;;;;;23.80;42.70;100492.13;5074318;28;20477;-58
2022/09/15 04:12:12;;;;;;;3.63;1.83;;;;;;;23.87;41.99;100491.09;5065199;28;20412;-58
2022/09/15 04:14:37;;;;;;;5.85;2.17;;;;;;;23.84;42.42;100479.72;5068575;28;20398;-58
2022/09/15 04:17:03;;;;;;;6.00;2.13;;;;;;;23.86;42.22;100479.47;5067981;28;20395;-58
2022/09/15 04:19:28;;;;;;;5.63;2.10;;;;;;;23.90;42.47;100479.75;5070146;28;20423;-58
2022/09/15 04:21:54;;;;;;;7.07;2.70;;;;;;;23.91;43.28;100479.47;5076113;28;21089;-58
2022/09/15 04:24:19;;;;;;;7.60;2.30;;;;;;;23.81;44.14;100472.13;5082971;28;20836;-58
2022/09/15 04:26:45;;;;;;;8.00;2.73;;;;;;;23.70;45.46;100470.44;5065959;28;20437;-58
2022/09/15 04:29:14;;;;;;;7.07;2.90;;;;;;;23.54;46.20;100460.59;5064986;28;20463;-58
2022/09/15 04:31:40;;;;;;;4.35;2.80;;;;;;;23.43;47.20;100455.13;5065978;28;20485;-58
2022/09/15 04:34:05;;;;;;;6.17;3.00;;;;;;;23.42;47.49;100464.31;5072463;28;20378;-58
2022/09/15 04:36:31;;;;;;;6.37;3.13;;;;;;;23.51;47.75;100470.03;5064818;28;20388;-57
2022/09/15 04:38:57;;;;;;;6.73;3.50;;;;;;;23.53;47.48;100457.06;5065543;28;20388;-58
2022/09/15 04:41:24;;;;;;;10.23;4.10;;;;;;;23.59;47.45;100468.75;5063318;28;20470;-58
2022/09/15 04:43:50;;;;;;;14.97;4.43;;;;;;;23.64;46.97;100466.88;5069429;28;20412;-58
2022/09/15 04:46:17;;;;;;;17.13;5.13;;;;;;;23.70;46.97;100456.88;5084446;28;20453;-58
2022/09/15 04:48:44;;;;;;;15.73;6.85;;;;;;;23.82;46.85;100456.69;5084165;28;20434;-58
2022/09/15 04:51:12;;;;;;;19.50;6.05;;;;;;;23.87;46.67;100458.63;5069998;28;20424;-57
2022/09/15 04:53:38;;;;;;;21.63;6.13;;;;;;;23.89;46.72;100462.66;5067986;28;20822;-57
2022/09/15 04:57:11;;;;;;;29.02;6.80;;;;;;;23.97;46.73;100453.25;5090762;27;20529;-58
2022/09/15 04:59:36;;;;;;;24.07;5.63;;;;;;;24.05;46.63;100445.38;5087700;28;20690;-58
2022/09/15 05:02:02;;;;;;;13.57;4.13;;;;;;;24.21;45.78;100445.44;5094035;28;20398;-58
2022/09/15 05:04:28;;;;;;;11.00;4.10;;;;;;;24.55;43.63;100443.09;5082062;28;20535;-58
2022/09/15 05:06:54;;;;;;;21.75;6.03;;;;;;;24.88;44.12;100445.53;5088843;28;20418;-58
2022/09/15 05:09:19;;;;;;;19.20;6.50;;;;;;;25.11;44.30;100446.88;5082767;28;20390;-58
2022/09/15 05:11:45;;;;;;;29.52;7.13;;;;;;;25.29;44.58;100449.03;5086722;28;20394;-58
2022/09/15 05:14:10;;;;;;;19.67;6.40;;;;;;;25.53;44.14;100445.69;5087292;28;20996;-59
2022/09/15 05:16:36;;;;;;;13.27;4.90;;;;;;;25.68;43.61;100431.28;5092913;28;20460;-58
2022/09/15 05:19:03;;;;;;;8.98;3.65;;;;;;;25.82;42.99;100429.59;5085160;28;20879;-58
2022/09/15 05:21:29;;;;;;;15.27;5.57;;;;;;;26.02;43.18;100431.41;5089633;28;20380;-58
2022/09/15 05:23:55;;;;;;;20.00;5.95;;;;;;;26.30;42.70;100439.91;5081995;28;20406;-59
2022/09/15 05:26:26;;;;;;;25.52;6.68;;;;;;;26.46;42.47;100427.03;5087954;28;20401;-59
2022/09/15 05:28:52;;;;;;;14.55;4.78;;;;;;;26.64;41.94;100418.22;5084403;28;20393;-58
2022/09/15 05:31:22;;;;;;;11.10;3.73;;;;;;;26.88;40.97;100410.13;5088770;28;20418;-59
2022/09/15 05:33:48;;;;;;;8.77;3.38;;;;;;;27.18;40.28;100418.25;5084131;28;20394;-59
2022/09/15 05:36:16;;;;;;;12.48;3.83;;;;;;;27.40;40.33;100407.69;5083527;28;20428;-58
2022/09/15 05:38:42;;;;;;;11.85;3.90;;;;;;;27.72;39.54;100398.03;5075498;28;20481;-59
2022/09/15 05:41:10;;;;;;;9.95;3.42;;;;;;;28.11;38.69;100399.72;5071592;28;20466;-58
2022/09/15 05:43:38;;;;;;;16.57;5.90;;;;;;;28.48;38.31;100410.88;5084358;28;20452;-59
2022/09/15 05:46:05;;;;;;;14.87;7.00;;;;;;;28.70;37.69;100408.34;5084944;28;20427;-59
2022/09/15 05:48:31;;;;;;;18.67;7.72;;;;;;;28.91;37.56;100407.97;5068541;28;20428;-58
2022/09/15 05:50:57;;;;;;;20.13;9.35;;;;;;;29.21;37.26;100403.06;5079185;28;20419;-59
2022/09/15 05:53:23;;;;;;;17.63;9.07;;;;;;;29.58;35.59;100412.97;5085272;28;20565;-59
2022/09/15 05:55:57;;;;;;;18.65;7.95;;;;;;;29.92;34.72;100412.53;5094043;28;20425;-59
2022/09/15 05:58:23;;;;;;;12.63;6.35;;;;;;;30.33;32.92;100415.44;5088016;28;20395;-59
2022/09/15 06:01:30;;;;;;;25.10;11.95;;;;;;;31.08;31.42;100421.25;5050904;28;20815;-59
2022/09/15 06:03:56;;;;;;;23.10;10.27;;;;;;;31.29;30.83;100410.53;5031422;28;20977;-60
2022/09/15 06:06:23;;;;;;;29.80;12.27;;;;;;;31.47;31.03;100408.66;5026465;28;20411;-59
2022/09/15 06:08:53;;;;;;;25.08;10.73;;;;;;;31.85;29.52;100397.16;5019262;28;20852;-57
2022/09/15 06:11:22;;;;;;;25.67;12.98;;;;;;;32.30;29.19;100405.06;5019251;28;20389;-59
2022/09/15 06:13:48;;;;;;;22.65;12.23;;;;;;;32.45;28.57;100407.31;5019695;28;20471;-59
2022/09/15 06:16:18;;;;;;;10.68;4.45;;;;;;;32.57;28.26;100403.91;5026189;28;20835;-59
2022/09/15 06:18:44;;;;;;;7.38;3.22;;;;;;;32.73;27.88;100412.44;5025073;28;20402;-57
2022/09/15 06:21:16;;;;;;;7.20;3.23;;;;;;;33.05;27.26;100413.78;5029302;28;20417;-59
2022/09/15 06:23:42;;;;;;;7.85;3.90;;;;;;;33.48;27.93;100410.06;5036701;28;20385;-59
2022/09/15 06:26:10;;;;;;;5.82;3.15;;;;;;;33.47;29.20;100408.44;5043581;28;20381;-59
2022/09/15 06:28:38;;;;;;;7.40;2.95;;;;;;;33.80;28.78;100406.97;5034159;28;20423;-59
2022/09/15 06:31:08;;;;;;;7.45;2.80;;;;;;;34.46;27.15;100417.28;5026993;28;20494;-59
2022/09/15 06:33:33;;;;;;;8.30;2.80;;;;;;;35.13;26.58;100426.28;5032543;28;20397;-59
2022/09/15 06:36:01;;;;;;;5.00;2.60;;;;;;;36.21;24.74;100413.03;5034146;28;20390;-60
2022/09/15 06:38:27;;;;;;;7.80;3.07;;;;;;;37.74;22.79;100410.97;5025032;28;20881;-59
2022/09/15 06:40:57;;;;;;;11.40;3.10;;;;;;;38.54;21.95;100408.63;5018596;28;20518;-59
2022/09/15 06:43:22;;;;;;;6.28;2.92;;;;;;;38.88;21.88;100415.16;5021987;28;20501;-60
2022/09/15 06:45:48;;;;;;;7.60;2.77;;;;;;;39.63;20.62;100410.00;5031543;28;20498;-60
2022/09/15 06:48:13;;;;;;;9.97;3.10;;;;;;;40.54;20.35;100415.47;5035324;28;21048;-60
2022/09/15 06:52:28;;;;;;;7.57;3.22;;;;;;;41.35;18.74;100411.00;5085985;27;2042534;-57
2022/09/15 06:54:53;;;;;;;12.27;4.10;;;;;;;41.46;18.20;100405.50;5126992;28;20399;-57
2022/09/15 06:57:19;;;;;;;9.37;4.60;;;;;;;41.92;17.95;100404.13;5126777;28;20733;-58
2022/09/15 06:59:44;;;;;;;10.13;4.70;;;;;;;42.46;17.57;100413.44;5127257;28;20371;-58
2022/09/15 07:02:10;;;;;;;11.10;4.53;;;;;;;42.46;17.49;100421.78;5123011;28;20857;-58
2022/09/15 07:04:38;;;;;;;21.07;5.70;;;;;;;41.78;18.36;100425.16;5115591;28;20816;-57
2022/09/15 07:07:04;;;;;;;10.00;5.03;;;;;;;40.82;19.22;100423.28;5126070;28;20383;-57
2022/09/15 07:09:29;;;;;;;9.55;3.53;;;;;;;39.95;18.88;100437.41;5126233;28;20374;-57
2022/09/15 07:11:55;;;;;;;12.18;4.80;;;;;;;39.45;19.87;100431.91;5126345;28;20403;-58
2022/09/15 07:14:20;;;;;;;9.95;4.15;;;;;;;39.07;19.73;100422.63;5125008;28;20394;-58
2022/09/15 07:16:46;;;;;;;5.57;2.97;;;;;;;38.67;19.84;100426.69;5117522;28;20444;-58
2022/09/15 07:19:11;;;;;;;7.07;2.60;;;;;;;38.39;19.66;100422.19;5125677;28;20418;-57
2022/09/15 07:21:37;;;;;;;9.90;4.53;;;;;;;38.22;21.19;100428.19;5126439;28;20894;-57
2022/09/15 07:24:02;;;;;;;6.90;2.80;;;;;;;37.93;20.63;100429.56;5117091;28;20425;-57
2022/09/15 07:26:29;;;;;;;8.68;3.72;;;;;;;37.58;21.02;100427.56;5120566;28;20424;-57
2022/09/15 07:28:57;;;;;;;8.45;2.63;;;;;;;37.29;20.79;100432.44;5124364;28;20478;-57
2022/09/15 07:31:26;;;;;;;9.82;2.80;;;;;;;36.97;20.78;100437.97;5119280;28;20410;-57
2022/09/15 07:33:52;;;;;;;7.43;3.15;;;;;;;36.82;21.62;100438.75;5120148;28;20387;-58
2022/09/15 07:36:18;;;;;;;6.20;3.35;;;;;;;36.70;21.60;100434.91;5118176;28;20448;-60
2022/09/15 07:38:46;;;;;;;6.20;3.50;;;;;;;36.42;22.39;100431.38;5121379;28;20439;-60
2022/09/15 07:41:23;;;;;;;6.03;3.50;;;;;;;36.24;22.73;100428.91;5116532;28;20383;-59
2022/09/15 07:43:54;;;;;;;8.47;3.60;;;;;;;36.10;22.69;100432.03;5121253;28;20378;-59
2022/09/15 07:46:21;;;;;;;8.75;3.72;;;;;;;35.99;23.58;100436.44;5120618;28;20793;-60
2022/09/15 07:48:49;;;;;;;8.43;2.80;;;;;;;35.78;23.34;100420.03;5108461;28;20376;-59
2022/09/15 07:51:15;;;;;;;8.60;2.35;;;;;;;35.60;22.64;100425.81;5116420;27;20429;-59
2022/09/15 07:53:42;;;;;;;4.78;2.50;;;;;;;35.56;22.33;100418.56;5121204;28;20367;-59
2022/09/15 07:58:08;;;;;;;8.63;2.83;;;;;;;35.39;22.05;100438.94;5081073;27;20410;-58
2022/09/15 08:00:33;;;;;;;4.63;2.67;;;;;;;35.29;22.21;100437.41;5077176;28;20461;-58
2022/09/15 08:02:59;;;;;;;11.45;2.67;;;;;;;35.26;21.81;100445.56;5081352;28;20380;-58
2022/09/15 08:05:27;;;;;;;5.33;2.20;;;;;;;35.23;22.05;100441.56;5077452;28;20380;-58
2022/09/15 08:07:56;;;;;;;8.50;2.08;;;;;;;35.12;21.56;100441.19;5082870;28;20390;-58
2022/09/15 08:10:25;;;;;;;5.85;2.13;;;;;;;35.03;21.45;100443.25;5085487;28;20382;-58
2022/09/15 08:12:53;;;;;;;7.47;1.83;;;;;;;34.99;20.36;100451.38;5085774;28;20496;-58
2022/09/15 08:15:19;;;;;;;11.88;1.80;;;;;;;34.94;20.89;100437.84;5086118;28;20425;-58
2022/09/15 08:17:45;;;;;;;8.57;2.15;;;;;;;34.90;21.39;100447.94;5088997;28;20987;-58
2022/09/15 08:20:11;;;;;;;5.38;2.05;;;;;;;34.83;20.75;100445.72;5088590;28;20480;-58
2022/09/15 08:22:38;;;;;;;9.02;2.00;;;;;;;34.76;20.81;100439.97;5088705;28;20389;-58
2022/09/15 08:25:04;;;;;;;5.05;2.20;;;;;;;34.79;21.97;100446.75;5074532;28;20382;-58
2022/09/15 08:27:30;;;;;;;9.38;2.03;;;;;;;34.73;21.56;100451.66;5079323;28;20383;-59
2022/09/15 08:29:55;;;;;;;6.38;1.80;;;;;;;34.70;21.14;100443.28;5089344;28;20441;-58
2022/09/15 08:32:21;;;;;;;5.73;2.07;;;;;;;34.69;22.04;100445.25;5085425;28;20395;-58
2022/09/15 08:34:46;;;;;;;4.30;2.00;;;;;;;34.64;21.58;100448.19;5093327;28;20388;-58
2022/09/15 08:37:12;;;;;;;13.20;3.00;;;;;;;34.61;22.37;100452.41;5092180;28;20455;-58
2022/09/15 08:39:37;;;;;;;8.98;1.77;;;;;;;34.63;20.57;100454.84;5082557;28;20392;-59
2022/09/15 08:42:03;;;;;;;7.15;2.08;;;;;;;34.80;19.95;100453.88;5077654;28;20758;-58
2022/09/15 08:46:52;;;;;;;14.48;2.58;;;;;;;35.03;19.55;100451.50;5086373;27;20432;-60
2022/09/15 08:49:27;;;;;;;5.82;1.60;;;;;;;35.03;19.65;100446.78;5069047;28;20403;-60
2022/09/15 08:51:56;;;;;;;5.88;1.77;;;;;;;35.10;18.27;100450.94;5068620;28;20893;-60
2022/09/15 08:54:26;;;;;;;4.45;1.65;;;;;;;35.27;18.90;100442.47;5073936;28;20393;-59
2022/09/15 08:56:52;;;;;;;7.40;1.67;;;;;;;35.37;18.74;100439.28;5070326;28;20490;-60
2022/09/15 08:59:19;;;;;;;5.70;1.85;;;;;;;35.42;18.79;100441.00;5077774;28;20393;-60
2022/09/15 09:01:53;;;;;;;5.00;1.67;;;;;;;35.50;18.73;100445.56;5066721;28;20778;-60
2022/09/15 09:04:19;;;;;;;5.25;1.48;;;;;;;35.57;18.74;100437.53;5073248;28;20415;-60
2022/09/15 09:06:50;;;;;;;7.00;1.47;;;;;;;35.57;18.58;100439.50;5070670;28;20412;-60
2022/09/15 09:09:37;;;;;;;6.78;1.85;;;;;;;35.61;18.50;100432.91;5080277;28;20398;-60
2022/09/15 09:12:24;;;;;;;5.43;1.30;;;;;;;35.63;18.73;100440.06;5065678;28;20479;-60
2022/09/15 09:14:50;;;;;;;5.25;1.40;;;;;;;35.70;18.90;100435.59;5070668;28;20383;-59
2022/09/15 09:17:59;;;;;;;8.83;1.63;;;;;;;35.73;18.70;100442.38;5066118;28;20381;-60
2022/09/15 09:21:05;;;;;;;8.13;1.73;;;;;;;35.66;18.48;100442.91;5066016;28;20392;-58
2022/09/15 09:23:32;;;;;;;7.47;1.70;;;;;;;35.76;18.38;100445.25;5039202;28;20396;-60
2022/09/15 09:26:00;;;;;;;6.03;1.60;;;;;;;35.78;18.41;100437.41;5056925;28;20506;-60
2022/09/15 09:28:41;;;;;;;6.75;2.10;;;;;;;35.82;18.49;100426.50;5073153;28;20402;-59
2022/09/15 09:31:17;;;;;;;6.20;1.73;;;;;;;35.82;18.37;100420.16;5065390;28;20424;-58
2022/09/15 09:34:14;;;;;;;6.68;1.80;;;;;;;35.76;18.68;100419.59;5065256;28;20471;-59
2022/09/15 09:38:37;;;;;;;5.43;1.70;;;;;;;35.73;19.02;100414.81;5057032;28;20417;-59
2022/09/15 09:41:13;;;;;;;7.70;1.75;;;;;;;35.73;18.48;100423.06;5056677;28;20399;-59
2022/09/15 09:43:41;;;;;;;5.30;1.55;;;;;;;35.72;18.71;100424.22;5066061;28;20881;-59
2022/09/15 09:46:14;;;;;;;5.70;1.60;;;;;;;35.74;18.75;100414.44;5057350;28;20389;-59
2022/09/15 09:48:46;;;;;;;5.80;1.58;;;;;;;35.76;18.43;100427.88;5054213;28;20385;-60
2022/09/15 09:51:50;;;;;;;6.75;1.52;;;;;;;35.79;18.39;100427.19;5035574;28;20604;-59
2022/09/15 09:54:19;;;;;;;4.78;1.60;;;;;;;35.76;18.54;100425.94;5061034;28;20903;-59
2022/09/15 09:56:49;;;;;;;7.72;1.50;;;;;;;35.68;19.28;100415.81;5057753;28;20422;-59
2022/09/15 09:59:40;;;;;;;4.85;1.60;;;;;;;35.68;18.91;100413.03;5057485;28;20388;-59
2022/09/15 10:02:14;;;;;;;4.60;1.50;;;;;;;35.66;19.58;100414.56;5047365;28;20410;-59
2022/09/15 10:04:51;;;;;;;4.88;1.50;;;;;;;35.62;19.39;100397.91;5051131;28;20376;-60
2022/09/15 10:07:20;;;;;;;4.78;1.73;;;;;;;35.58;19.45;100403.31;5063371;28;20381;-59
2022/09/15 10:09:56;;;;;;;7.13;1.70;;;;;;;35.61;19.12;100404.56;5064340;28;20383;-60
2022/09/15 10:12:30;;;;;;;3.85;1.60;;;;;;;35.66;19.28;100407.06;5064481;28;20896;-59
2022/09/15 10:15:00;;;;;;;4.63;1.50;;;;;;;35.71;19.36;100401.34;5064561;28;20384;-58
2022/09/15 10:17:44;;;;;;;7.17;1.87;;;;;;;35.69;19.55;100414.66;5064656;28;20889;-59
2022/09/15 10:20:38;;;;;;;7.60;1.80;;;;;;;35.65;19.90;100407.41;5065247;28;20723;-59
2022/09/15 10:23:13;;;;;;;6.90;1.63;;;;;;;35.60;19.88;100409.28;5061136;28;20386;-59
2022/09/15 10:25:38;;;;;;;4.53;1.63;;;;;;;35.50;19.88;100409.75;5065468;28;20943;-59
2022/09/15 10:28:07;;;;;;;7.90;2.10;;;;;;;35.48;19.95;100408.50;5065125;28;20388;-59
2022/09/15 10:30:33;;;;;;;7.38;2.00;;;;;;;35.49;20.11;100399.06;5051522;28;20940;-59
2022/09/15 10:33:29;;;;;;;5.60;2.08;;;;;;;35.46;19.76;100400.56;5064969;28;20427;-59
2022/09/15 10:36:02;;;;;;;5.80;1.63;;;;;;;35.49;19.78;100401.81;5042388;28;20384;-59
2022/09/15 10:38:53;;;;;;;6.45;1.60;;;;;;;35.54;19.79;100398.81;5063462;28;20384;-59
2022/09/15 10:41:26;;;;;;;8.00;1.90;;;;;;;35.43;20.12;100404.00;5055744;28;20476;-59
2022/09/15 10:44:19;;;;;;;6.28;1.52;;;;;;;35.48;20.11;100402.97;5064538;28;20800;-59
2022/09/15 10:47:03;;;;;;;6.15;1.75;;;;;;;35.57;20.14;100406.41;5065093;28;20469;-59
2022/09/15 10:49:51;;;;;;;11.85;2.00;;;;;;;35.58;20.26;100400.56;5052744;28;20446;-60
2022/09/15 10:52:28;;;;;;;11.20;2.10;;;;;;;35.56;20.41;100404.78;5051271;28;20809;-59
2022/09/15 10:55:01;;;;;;;8.18;1.35;;;;;;;35.58;20.08;100386.75;5040870;28;20393;-59
2022/09/15 10:57:27;;;;;;;7.18;1.67;;;;;;;35.70;20.31;100396.97;5045415;28;20415;-59
2022/09/15 11:00:08;;;;;;;9.87;1.90;;;;;;;35.66;20.30;100398.81;5032055;28;20434;-59
2022/09/15 11:03:17;;;;;;;8.23;1.80;;;;;;;35.60;20.40;100392.72;5037006;28;20399;-58
2022/09/15 11:05:53;;;;;;;5.72;1.67;;;;;;;35.54;19.95;100382.28;5051323;28;20890;-58
2022/09/15 11:08:25;;;;;;;8.05;1.70;;;;;;;35.50;20.38;100387.69;5031706;28;20382;-58
2022/09/15 11:11:05;;;;;;;4.18;2.03;;;;;;;35.51;20.41;100381.03;5040782;28;20407;-58
2022/09/15 11:13:40;;;;;;;4.93;2.00;;;;;;;35.42;20.17;100383.13;5036941;28;20751;-58
2022/09/15 11:16:06;;;;;;;7.87;2.07;;;;;;;35.36;20.40;100374.25;5051166;28;20384;-58
2022/09/15 11:18:43;;;;;;;6.30;1.70;;;;;;;35.24;20.76;100377.06;5050675;28;20401;-59
2022/09/15 11:21:33;;;;;;;6.40;1.60;;;;;;;35.22;20.59;100380.16;5051177;28;20380;-58
2022/09/15 11:24:02;;;;;;;7.32;1.83;;;;;;;35.21;20.68;100372.22;5050770;28;20372;-59
2022/09/15 11:26:37;;;;;;;7.78;2.08;;;;;;;35.15;20.92;100376.31;5037171;28;20469;-58
2022/09/15 11:29:22;;;;;;;8.10;1.73;;;;;;;35.11;20.93;100373.44;5051019;28;20389;-58
2022/09/15 11:31:53;;;;;;;7.07;1.80;;;;;;;35.04;21.04;100378.72;5050740;28;20395;-58
2022/09/15 11:34:25;;;;;;;9.80;1.87;;;;;;;35.09;20.85;100367.47;5050914;28;20912;-58
2022/09/15 11:36:58;;;;;;;6.70;1.45;;;;;;;35.04;20.62;100374.03;5050543;28;20431;-58
2022/09/15 11:39:29;;;;;;;5.63;1.63;;;;;;;34.97;20.87;100370.22;5050631;28;20385;-58
2022/09/15 11:42:06;;;;;;;7.65;2.00;;;;;;;34.95;20.85;100361.50;5050576;28;20392;-58
2022/09/15 11:44:35;;;;;;;5.43;1.70;;;;;;;34.88;21.39;100351.09;5041175;28;20436;-58
2022/09/15 11:47:08;;;;;;;7.22;1.80;;;;;;;34.93;21.09;100353.59;5046255;28;20389;-59
2022/09/15 11:49:53;;;;;;;6.53;1.63;;;;;;;34.91;20.84;100350.38;5050963;28;20385;-58
2022/09/15 11:53:10;;;;;;;4.97;1.67;;;;;;;34.92;20.69;100348.44;5089357;27;20412;-58
2022/09/15 11:55:42;;;;;;;8.65;2.22;;;;;;;34.90;21.11;100357.06;5066045;28;20404;-58
2022/09/15 11:58:18;;;;;;;6.85;1.80;;;;;;;34.87;21.11;100335.69;5066656;28;20380;-58
2022/09/15 12:00:55;;;;;;;7.67;2.20;;;;;;;34.80;21.12;100335.47;5065988;28;20441;-58
2022/09/15 12:03:54;;;;;;;7.78;1.80;;;;;;;34.69;21.27;100335.13;5066067;28;20383;-58
2022/09/15 12:06:31;;;;;;;6.65;1.70;;;;;;;34.75;21.13;100332.94;5053105;28;20467;-58
2022/09/15 12:09:00;;;;;;;4.15;1.48;;;;;;;34.77;21.66;100336.16;5065523;28;20380;-58
2022/09/15 12:11:29;;;;;;;6.32;1.67;;;;;;;34.70;21.57;100327.66;5066040;28;20515;-58
2022/09/15 12:13:56;;;;;;;8.98;1.92;;;;;;;34.71;21.87;100321.00;5065983;28;20376;-58
2022/09/15 12:16:23;;;;;;;3.40;1.45;;;;;;;34.66;21.60;100316.50;5065806;28;20533;-58
2022/09/15 12:18:54;;;;;;;4.78;1.60;;;;;;;34.64;21.65;100325.09;5065619;28;20441;-58
2022/09/15 12:21:25;;;;;;;4.35;1.60;;;;;;;34.60;21.61;100313.16;5065220;28;20392;-58
2022/09/15 12:24:06;;;;;;;4.22;1.30;;;;;;;34.65;21.47;100310.19;5065727;28;20391;-58